Time;durP1;ratioP1;P1;durP2;ratioP2;P2;SDS_P1;SDS_P2;PMS_P1;PMS_P2;Temp;Humidity;BMP_temperature;BMP_pressure;BME280_temperature;BME280_humidity;BME280_pressure;Samples;Min_cycle;Max_cycle;Signal;HPM_P1;HPM_P2
2022/07/17 00:01:53;;;;;;;1.35;1.17;;;;;;;16.75;77.55;101822.13;4994102;28;20053;-69
2022/07/17 00:04:18;;;;;;;2.28;0.70;;;;;;;16.55;78.38;101820.69;5010040;28;20064;-69
2022/07/17 00:06:44;;;;;;;1.52;0.60;;;;;;;16.44;78.26;101823.19;5012109;28;20289;-69
2022/07/17 00:09:10;;;;;;;1.35;0.70;;;;;;;16.30;79.86;101819.47;5010117;28;20057;-69
2022/07/17 00:11:35;;;;;;;1.33;0.70;;;;;;;15.99;80.69;101812.34;4998772;28;20076;-70
2022/07/17 00:14:00;;;;;;;2.15;0.90;;;;;;;16.05;80.90;101811.69;4992031;28;20117;-70
2022/07/17 00:16:26;;;;;;;2.63;0.93;;;;;;;16.05;81.22;101816.34;4992327;28;20027;-69
2022/07/17 00:18:51;;;;;;;1.90;0.65;;;;;;;15.97;81.36;101815.44;4991155;28;20067;-69
2022/07/17 00:21:17;;;;;;;1.92;0.60;;;;;;;15.97;81.38;101810.00;4990429;28;20030;-69
2022/07/17 00:23:43;;;;;;;1.58;0.90;;;;;;;16.00;81.54;101814.72;4992162;28;20104;-69
2022/07/17 00:26:08;;;;;;;2.00;0.90;;;;;;;16.03;81.54;101818.63;4991878;28;20106;-69
2022/07/17 00:28:34;;;;;;;2.67;0.90;;;;;;;16.00;81.70;101822.88;4991636;28;20483;-69
2022/07/17 00:30:59;;;;;;;2.38;0.80;;;;;;;15.97;81.91;101817.34;4991951;28;20034;-69
2022/07/17 00:33:25;;;;;;;2.42;1.00;;;;;;;15.97;81.90;101820.06;4994416;28;20079;-69
2022/07/17 00:35:50;;;;;;;2.90;0.93;;;;;;;15.86;82.33;101819.91;4994033;28;20490;-70
2022/07/17 00:38:16;;;;;;;1.58;0.77;;;;;;;15.72;82.86;101827.00;4994541;28;20475;-70
2022/07/17 00:40:42;;;;;;;1.63;0.77;;;;;;;15.79;82.89;101832.56;4991088;28;20506;-69
2022/07/17 00:43:07;;;;;;;1.17;1.08;;;;;;;15.64;83.61;101830.75;4991879;28;20034;-69
2022/07/17 00:45:33;;;;;;;1.73;1.00;;;;;;;15.65;83.91;101827.66;4992116;28;20042;-69
2022/07/17 00:48:01;;;;;;;1.48;0.95;;;;;;;15.60;83.92;101822.50;4990908;28;20042;-69
2022/07/17 00:50:30;;;;;;;1.67;1.05;;;;;;;15.44;85.05;101824.56;4989855;28;20438;-70
2022/07/17 00:52:56;;;;;;;2.83;0.80;;;;;;;15.49;85.09;101818.81;4991576;28;20034;-70
2022/07/17 00:55:22;;;;;;;1.13;0.70;;;;;;;15.34;85.65;101819.66;4989960;28;20365;-69
2022/07/17 00:57:49;;;;;;;1.38;0.90;;;;;;;15.42;85.74;101826.03;4990951;28;20035;-69
2022/07/17 01:00:16;;;;;;;3.17;1.02;;;;;;;15.42;85.10;101815.97;4991139;28;20430;-69
2022/07/17 01:02:47;;;;;;;0.73;0.57;;;;;;;15.40;85.03;101815.53;4991082;28;20037;-69
2022/07/17 01:05:13;;;;;;;3.00;0.80;;;;;;;15.46;85.20;101822.25;4991630;28;20296;-69
2022/07/17 01:07:38;;;;;;;3.72;1.17;;;;;;;15.33;85.58;101818.88;4991034;28;20034;-69
2022/07/17 01:10:04;;;;;;;6.00;1.30;;;;;;;15.13;86.91;101819.22;4990705;28;20117;-69
2022/07/17 01:12:30;;;;;;;2.20;0.82;;;;;;;15.13;86.65;101825.44;4991710;28;20499;-69
2022/07/17 01:14:57;;;;;;;2.38;0.98;;;;;;;15.12;86.54;101823.06;4991500;28;20030;-69
2022/07/17 01:17:23;;;;;;;5.13;0.70;;;;;;;15.02;86.90;101824.44;4998060;28;20037;-69
2022/07/17 01:19:49;;;;;;;0.85;0.65;;;;;;;15.18;86.43;101827.06;5010658;28;20551;-69
2022/07/17 01:22:14;;;;;;;0.90;0.60;;;;;;;15.31;86.18;101815.72;5014276;28;20045;-69
2022/07/17 01:24:41;;;;;;;2.45;1.08;;;;;;;15.21;86.33;101820.94;4997082;28;20064;-70
2022/07/17 01:27:06;;;;;;;4.00;0.80;;;;;;;15.13;86.61;101813.81;5014559;28;20034;-69
2022/07/17 01:29:32;;;;;;;1.65;0.80;;;;;;;15.23;86.52;101819.44;5014268;28;20049;-69
2022/07/17 01:31:58;;;;;;;2.65;0.95;;;;;;;15.23;86.04;101830.28;5014810;28;20034;-69
2022/07/17 01:34:23;;;;;;;3.20;1.13;;;;;;;15.21;86.15;101837.25;5014368;28;20042;-69
2022/07/17 01:36:49;;;;;;;1.90;1.02;;;;;;;15.28;86.04;101832.75;5014786;28;20045;-70
2022/07/17 01:39:14;;;;;;;3.25;1.05;;;;;;;15.27;86.32;101827.69;5014035;28;20038;-69
2022/07/17 01:41:40;;;;;;;3.63;1.40;;;;;;;15.30;86.33;101832.38;5014588;28;20116;-69
2022/07/17 01:44:07;;;;;;;1.05;0.75;;;;;;;15.23;86.27;101834.97;5014451;28;20040;-69
2022/07/17 01:46:32;;;;;;;1.33;0.93;;;;;;;15.15;86.84;101833.22;5014504;28;20042;-70
2022/07/17 01:49:00;;;;;;;1.63;0.73;;;;;;;15.22;86.40;101828.72;5013984;28;20612;-69
2022/07/17 01:51:27;;;;;;;3.00;0.73;;;;;;;15.15;86.52;101841.38;5008798;28;20084;-69
2022/07/17 01:53:52;;;;;;;0.85;0.68;;;;;;;15.05;87.39;101840.00;4995051;28;20027;-69
2022/07/17 01:56:18;;;;;;;0.60;0.57;;;;;;;15.02;87.70;101832.56;4994783;28;20391;-69
2022/07/17 01:58:44;;;;;;;2.40;0.88;;;;;;;14.98;88.01;101834.41;4994143;28;20380;-69
2022/07/17 02:01:09;;;;;;;1.38;0.80;;;;;;;15.12;87.95;101832.00;4987771;28;20483;-69
2022/07/17 02:03:35;;;;;;;1.33;1.00;;;;;;;15.20;87.93;101843.78;4992347;28;20038;-70
2022/07/17 02:06:00;;;;;;;1.00;0.75;;;;;;;15.17;88.11;101839.88;4994651;28;20035;-70
2022/07/17 02:08:26;;;;;;;4.88;1.10;;;;;;;15.30;88.67;101837.81;4993750;28;20319;-70
2022/07/17 02:10:51;;;;;;;0.75;0.75;;;;;;;15.41;88.32;101841.50;4994790;28;20465;-70
2022/07/17 02:13:17;;;;;;;0.90;0.70;;;;;;;15.45;88.46;101834.25;4994314;28;20034;-70
2022/07/17 02:15:42;;;;;;;1.50;0.98;;;;;;;15.50;88.89;101828.56;4994399;28;20176;-70
2022/07/17 02:18:08;;;;;;;2.30;0.60;;;;;;;15.56;89.08;101837.19;4993474;28;20065;-70
2022/07/17 02:20:34;;;;;;;3.38;1.02;;;;;;;15.76;88.07;101838.72;4994254;28;20121;-70
2022/07/17 02:22:59;;;;;;;3.50;0.70;;;;;;;15.76;88.01;101836.00;4994321;28;20057;-70
2022/07/17 02:25:25;;;;;;;2.75;0.70;;;;;;;15.90;87.36;101834.34;4994187;28;20391;-70
2022/07/17 02:27:54;;;;;;;3.15;0.85;;;;;;;16.06;87.17;101831.50;4993402;28;20406;-70
2022/07/17 02:30:20;;;;;;;1.02;0.63;;;;;;;16.17;86.36;101837.91;4993522;28;20018;-70
2022/07/17 02:32:46;;;;;;;3.50;0.90;;;;;;;16.23;85.94;101841.88;4993428;28;20113;-70
2022/07/17 02:35:12;;;;;;;2.88;1.05;;;;;;;16.33;85.26;101844.00;5011377;28;20044;-70
2022/07/17 02:37:39;;;;;;;3.50;1.13;;;;;;;16.25;85.09;101843.09;5012348;28;20030;-70
2022/07/17 02:40:05;;;;;;;1.38;0.90;;;;;;;16.15;85.20;101846.41;5013278;28;20038;-70
2022/07/17 02:42:31;;;;;;;2.65;1.00;;;;;;;16.25;85.10;101850.47;4998150;28;20041;-70
2022/07/17 02:44:58;;;;;;;9.00;1.08;;;;;;;16.27;84.75;101857.13;4993935;28;20033;-70
2022/07/17 02:47:42;;;;;;;1.70;1.02;;;;;;;16.38;85.03;101856.47;4992867;28;20098;-70
2022/07/17 02:50:09;;;;;;;3.83;0.90;;;;;;;16.44;84.65;101860.47;4994167;28;20037;-70
2022/07/17 02:52:35;;;;;;;0.75;0.63;;;;;;;16.49;83.83;101858.25;4993859;28;20034;-70
2022/07/17 02:55:01;;;;;;;2.78;0.90;;;;;;;16.41;83.79;101858.50;4993477;28;20042;-70
2022/07/17 02:57:27;;;;;;;3.53;0.77;;;;;;;16.44;83.77;101866.69;4992764;28;20064;-70
2022/07/17 02:59:52;;;;;;;3.90;1.08;;;;;;;16.48;82.92;101864.03;5012566;28;20026;-70
2022/07/17 03:02:18;;;;;;;2.60;0.98;;;;;;;16.50;83.02;101873.44;5012720;28;20104;-70
2022/07/17 03:04:43;;;;;;;3.75;0.70;;;;;;;16.51;82.92;101868.78;5011254;28;20063;-69
2022/07/17 03:07:09;;;;;;;0.82;0.73;;;;;;;16.53;82.93;101885.53;5011922;28;20557;-69
2022/07/17 03:09:34;;;;;;;2.10;0.82;;;;;;;16.63;82.42;101874.00;4992450;28;20038;-69
2022/07/17 03:12:00;;;;;;;1.08;0.80;;;;;;;16.56;82.58;101868.47;4993207;28;20033;-69
2022/07/17 03:14:26;;;;;;;2.17;0.70;;;;;;;16.56;82.24;101880.13;4993630;28;20039;-69
2022/07/17 03:16:52;;;;;;;0.95;0.70;;;;;;;16.58;82.19;101885.22;4993905;28;20479;-68
2022/07/17 03:19:18;;;;;;;1.77;0.93;;;;;;;16.68;82.34;101890.84;4992056;28;20050;-69
2022/07/17 03:21:44;;;;;;;3.35;0.93;;;;;;;16.74;81.49;101896.75;4992913;28;20034;-68
2022/07/17 03:24:09;;;;;;;1.55;0.90;;;;;;;16.74;81.58;101891.31;4993721;28;20045;-68
2022/07/17 03:26:35;;;;;;;2.75;0.98;;;;;;;16.77;81.47;101896.00;4993032;28;20108;-69
2022/07/17 03:29:01;;;;;;;3.92;1.00;;;;;;;16.81;81.74;101894.13;4992046;28;20073;-68
2022/07/17 03:31:26;;;;;;;2.15;0.80;;;;;;;16.88;81.21;101888.78;4992896;28;20030;-69
2022/07/17 03:33:52;;;;;;;3.35;0.82;;;;;;;16.91;80.65;101877.16;4999586;28;20079;-69
2022/07/17 03:36:17;;;;;;;0.77;0.75;;;;;;;16.94;80.40;101879.13;5012543;28;20037;-69
2022/07/17 03:38:43;;;;;;;2.50;1.13;;;;;;;16.87;80.22;101870.88;5011113;28;20044;-68
2022/07/17 03:41:08;;;;;;;2.80;0.88;;;;;;;16.84;81.05;101861.50;5027624;22;20136;-65
2022/07/17 03:43:34;;;;;;;2.03;0.70;;;;;;;16.88;80.64;101858.84;5031744;28;20076;-65
2022/07/17 03:45:59;;;;;;;4.80;1.15;;;;;;;16.88;81.31;101858.84;5031389;28;20033;-65
2022/07/17 03:48:25;;;;;;;4.63;0.93;;;;;;;16.84;81.44;101849.88;5029778;28;20168;-65
2022/07/17 03:50:50;;;;;;;1.48;1.00;;;;;;;16.88;81.45;101842.50;5031800;28;20049;-65
2022/07/17 03:53:16;;;;;;;1.65;0.52;;;;;;;16.94;81.20;101851.94;5032194;28;20044;-64
2022/07/17 03:55:41;;;;;;;2.15;1.00;;;;;;;16.95;81.08;101865.19;5031362;28;20107;-65
2022/07/17 03:58:07;;;;;;;3.42;1.10;;;;;;;16.96;81.08;101871.38;5031005;28;20029;-65
2022/07/17 04:00:32;;;;;;;1.77;0.80;;;;;;;17.04;81.23;101875.78;5031932;28;20088;-65
2022/07/17 04:02:58;;;;;;;4.38;0.90;;;;;;;17.03;80.80;101868.78;5029070;28;20041;-64
2022/07/17 04:05:23;;;;;;;0.88;0.75;;;;;;;17.03;81.20;101882.41;5031297;28;20385;-65
2022/07/17 04:07:49;;;;;;;1.73;0.80;;;;;;;17.09;80.86;101889.84;5030789;28;20120;-64
2022/07/17 04:10:15;;;;;;;1.52;0.90;;;;;;;17.15;80.57;101885.66;5031423;28;20128;-65
2022/07/17 04:12:41;;;;;;;1.85;0.63;;;;;;;17.17;80.38;101888.00;5031983;28;20104;-64
2022/07/17 04:15:08;;;;;;;4.90;0.73;;;;;;;17.15;79.98;101887.59;5031109;28;20087;-64
2022/07/17 04:17:35;;;;;;;1.20;0.77;;;;;;;17.17;80.13;101893.47;5012727;28;20124;-65
2022/07/17 04:20:01;;;;;;;2.10;0.70;;;;;;;17.26;79.53;101885.81;5030964;28;20033;-64
2022/07/17 04:22:26;;;;;;;5.80;1.20;;;;;;;17.26;79.91;101885.03;5030889;28;20116;-64
2022/07/17 04:24:52;;;;;;;2.70;0.95;;;;;;;17.27;79.84;101886.59;5031601;28;20430;-65
2022/07/17 04:27:18;;;;;;;3.70;0.77;;;;;;;17.17;80.33;101887.25;5031599;28;20025;-64
2022/07/17 04:29:44;;;;;;;1.92;0.82;;;;;;;17.27;80.09;101887.38;5030157;28;20067;-64
2022/07/17 04:32:09;;;;;;;0.90;0.60;;;;;;;17.31;79.61;101899.09;5031179;28;20033;-65
2022/07/17 04:34:35;;;;;;;1.25;0.95;;;;;;;17.32;80.33;101894.44;5031232;28;20042;-65
2022/07/17 04:37:02;;;;;;;2.15;0.80;;;;;;;17.39;79.66;101900.78;5031172;28;20041;-64
2022/07/17 04:39:29;;;;;;;2.05;0.90;;;;;;;17.43;79.80;101892.63;5029633;28;20037;-64
2022/07/17 04:41:54;;;;;;;4.03;1.00;;;;;;;17.47;79.25;101896.97;5031351;28;20552;-65
2022/07/17 04:44:20;;;;;;;1.60;0.73;;;;;;;17.51;79.58;101895.13;5031123;28;20156;-64
2022/07/17 04:46:45;;;;;;;1.27;0.80;;;;;;;17.52;79.81;101899.41;5030391;28;20045;-64
2022/07/17 04:49:12;;;;;;;2.45;0.85;;;;;;;17.56;79.54;101886.59;5030093;28;20040;-65
2022/07/17 04:51:37;;;;;;;1.73;0.90;;;;;;;17.64;79.54;101896.44;5031124;28;20045;-65
2022/07/17 04:54:03;;;;;;;2.35;0.75;;;;;;;17.64;79.21;101890.97;5029906;28;20041;-65
2022/07/17 04:56:29;;;;;;;1.23;0.90;;;;;;;17.71;79.26;101896.50;5030278;28;20033;-65
2022/07/17 04:58:55;;;;;;;1.50;0.68;;;;;;;17.72;79.93;101891.84;5029852;28;20044;-64
2022/07/17 05:01:21;;;;;;;2.75;0.70;;;;;;;17.78;79.92;101896.59;5030502;28;20037;-64
2022/07/17 05:03:46;;;;;;;3.72;1.08;;;;;;;17.84;79.75;101889.66;5028680;28;20486;-64
2022/07/17 05:06:12;;;;;;;1.42;0.70;;;;;;;17.91;79.47;101886.22;5030588;28;20486;-65
2022/07/17 05:08:37;;;;;;;1.38;1.10;;;;;;;18.00;79.07;101876.56;5029776;28;20045;-64
2022/07/17 05:11:03;;;;;;;5.32;1.00;;;;;;;18.07;78.22;101875.88;5030696;28;20029;-65
2022/07/17 05:13:29;;;;;;;2.47;0.80;;;;;;;17.95;77.89;101874.19;5031055;28;20044;-64
2022/07/17 05:15:55;;;;;;;4.60;1.20;;;;;;;18.07;78.85;101870.41;5030215;28;20091;-65
2022/07/17 05:18:20;;;;;;;4.32;1.00;;;;;;;18.16;78.29;101876.31;5030046;28;20069;-64
2022/07/17 05:20:46;;;;;;;2.92;1.00;;;;;;;18.28;78.54;101872.53;5030624;28;20112;-64
2022/07/17 05:23:11;;;;;;;2.17;0.60;;;;;;;18.28;77.66;101880.72;5030398;28;20041;-64
2022/07/17 05:25:37;;;;;;;1.95;0.73;;;;;;;18.43;76.46;101882.44;5029895;28;20045;-64
2022/07/17 05:28:03;;;;;;;5.40;1.13;;;;;;;18.43;76.19;101879.69;5030058;28;20030;-64
2022/07/17 05:30:28;;;;;;;2.78;0.80;;;;;;;18.50;76.21;101887.97;5030844;28;20501;-65
2022/07/17 05:32:54;;;;;;;2.97;0.80;;;;;;;18.53;76.49;101887.97;5029937;28;20042;-65
2022/07/17 05:35:20;;;;;;;1.88;1.08;;;;;;;18.60;75.81;101893.47;5029997;28;20040;-65
2022/07/17 05:37:46;;;;;;;3.95;0.70;;;;;;;18.61;76.32;101897.78;5029869;28;20026;-65
2022/07/17 05:40:12;;;;;;;6.35;1.20;;;;;;;18.60;76.06;101904.41;5029629;28;20409;-64
2022/07/17 05:42:38;;;;;;;1.23;0.65;;;;;;;18.67;75.12;101907.19;5030844;28;20065;-65
2022/07/17 05:45:04;;;;;;;3.10;0.90;;;;;;;18.70;75.08;101903.69;5030584;28;20096;-65
2022/07/17 05:47:30;;;;;;;1.80;0.73;;;;;;;18.74;74.90;101903.72;5029523;28;20033;-65
2022/07/17 05:49:55;;;;;;;2.00;1.00;;;;;;;18.73;74.35;101913.09;5030332;28;20029;-65
2022/07/17 05:52:21;;;;;;;4.72;0.82;;;;;;;18.74;74.26;101912.69;5030178;28;20111;-65
2022/07/17 05:54:46;;;;;;;1.92;0.90;;;;;;;18.78;74.43;101918.19;5030696;28;20041;-65
2022/07/17 05:57:12;;;;;;;4.93;1.05;;;;;;;18.89;74.07;101906.16;5030057;28;20099;-64
2022/07/17 05:59:37;;;;;;;1.73;0.88;;;;;;;18.91;74.38;101909.31;5029448;28;20383;-64
2022/07/17 06:02:04;;;;;;;1.38;0.95;;;;;;;18.98;73.40;101910.53;5030536;28;20038;-65
2022/07/17 06:04:30;;;;;;;4.07;0.68;;;;;;;18.96;73.18;101915.56;5028215;28;20042;-65
2022/07/17 06:06:55;;;;;;;3.53;0.75;;;;;;;18.91;73.50;101912.03;5030441;28;20033;-65
2022/07/17 06:09:21;;;;;;;1.00;0.77;;;;;;;18.89;73.55;101906.16;5032617;28;20378;-64
2022/07/17 06:11:47;;;;;;;2.30;1.10;;;;;;;18.86;73.72;101917.06;5033234;28;20049;-65
2022/07/17 06:14:12;;;;;;;1.38;0.60;;;;;;;18.84;73.85;101920.19;5033638;28;20063;-65
2022/07/17 06:16:38;;;;;;;2.55;0.98;;;;;;;18.89;73.75;101919.06;5033757;28;20034;-65
2022/07/17 06:19:03;;;;;;;3.67;0.95;;;;;;;18.86;73.76;101928.00;5032798;28;20038;-65
2022/07/17 06:21:29;;;;;;;1.50;0.68;;;;;;;18.92;73.18;101921.03;5033103;28;20660;-64
2022/07/17 06:23:54;;;;;;;3.08;0.75;;;;;;;19.09;73.34;101923.06;5034253;28;20033;-65
2022/07/17 06:26:20;;;;;;;5.75;0.90;;;;;;;19.17;73.08;101916.50;5033129;28;20092;-64
2022/07/17 06:28:45;;;;;;;4.05;0.90;;;;;;;19.40;73.05;101927.16;5032562;28;20053;-65
2022/07/17 06:31:11;;;;;;;1.83;0.65;;;;;;;19.52;72.06;101927.63;5033637;28;20040;-65
2022/07/17 06:33:38;;;;;;;3.92;0.73;;;;;;;19.61;71.63;101925.31;5033541;28;20045;-65
2022/07/17 06:36:04;;;;;;;2.50;0.75;;;;;;;19.69;71.06;101937.84;5033526;28;20041;-64
2022/07/17 06:38:29;;;;;;;1.02;0.63;;;;;;;19.78;69.75;101932.81;5031776;28;20057;-65
2022/07/17 06:40:55;;;;;;;2.03;0.90;;;;;;;19.79;69.30;101926.19;5033311;28;20056;-65
2022/07/17 06:43:20;;;;;;;4.32;0.98;;;;;;;19.90;68.81;101930.91;5033482;28;20061;-64
2022/07/17 06:45:46;;;;;;;3.13;0.90;;;;;;;19.94;68.70;101931.69;5033301;28;20568;-65
2022/07/17 06:48:11;;;;;;;2.05;0.70;;;;;;;19.96;68.97;101937.53;5031289;28;20429;-65
2022/07/17 06:50:37;;;;;;;1.85;0.90;;;;;;;20.00;68.88;101944.59;5033201;28;20493;-65
2022/07/17 06:53:03;;;;;;;2.67;0.82;;;;;;;20.02;68.50;101936.00;5033294;28;20033;-65
2022/07/17 06:55:29;;;;;;;3.53;0.70;;;;;;;20.09;68.53;101944.22;5032758;28;20516;-65
2022/07/17 06:57:54;;;;;;;4.38;0.70;;;;;;;20.15;68.29;101950.91;5031648;28;20044;-65
2022/07/17 07:00:20;;;;;;;2.00;0.73;;;;;;;20.23;67.64;101958.75;5032807;28;20438;-64
2022/07/17 07:02:46;;;;;;;1.55;0.70;;;;;;;20.21;67.76;101961.09;5030855;28;20033;-65
2022/07/17 07:05:11;;;;;;;3.10;0.75;;;;;;;20.21;67.91;101966.56;5032419;28;20061;-65
2022/07/17 07:07:37;;;;;;;2.72;0.88;;;;;;;20.27;67.94;101962.28;5032277;28;20041;-65
2022/07/17 07:10:03;;;;;;;2.83;0.65;;;;;;;20.36;67.98;101967.38;5032810;28;20482;-65
2022/07/17 07:12:29;;;;;;;4.05;0.80;;;;;;;20.44;66.98;101963.47;5032375;28;20029;-65
2022/07/17 07:14:54;;;;;;;2.00;0.90;;;;;;;20.47;66.82;101960.75;5032565;28;20497;-65
2022/07/17 07:17:20;;;;;;;1.52;0.90;;;;;;;20.54;66.58;101951.72;5032196;28;20402;-65
2022/07/17 07:19:46;;;;;;;0.88;0.60;;;;;;;20.74;66.85;101952.13;5031644;28;20029;-65
2022/07/17 07:22:11;;;;;;;1.27;0.70;;;;;;;21.00;66.08;101959.94;5032290;28;20124;-65
2022/07/17 07:24:37;;;;;;;1.98;0.70;;;;;;;21.18;65.12;101960.72;5032612;28;20069;-65
2022/07/17 07:27:03;;;;;;;2.85;0.70;;;;;;;21.49;64.78;101970.81;5032821;28;20040;-65
2022/07/17 07:29:28;;;;;;;1.58;0.80;;;;;;;21.77;63.38;101969.94;5031588;28;20075;-65
2022/07/17 07:31:54;;;;;;;3.15;0.60;;;;;;;22.04;62.40;101962.78;5031806;28;20041;-65
2022/07/17 07:34:19;;;;;;;4.95;0.60;;;;;;;22.23;60.31;101971.28;5032398;28;20037;-65
2022/07/17 07:36:45;;;;;;;2.03;0.85;;;;;;;22.38;59.96;101956.28;5032447;28;20095;-65
2022/07/17 07:39:10;;;;;;;0.95;0.50;;;;;;;22.48;59.16;101970.31;5031328;28;20029;-65
2022/07/17 07:41:36;;;;;;;1.95;0.57;;;;;;;22.45;59.00;101969.19;5031589;28;20413;-65
2022/07/17 07:44:01;;;;;;;1.38;0.30;;;;;;;22.46;59.33;101976.22;5032227;28;20037;-65
2022/07/17 07:46:27;;;;;;;0.60;0.32;;;;;;;22.60;58.61;101967.13;5032279;28;20120;-65
2022/07/17 07:48:53;;;;;;;4.28;0.70;;;;;;;22.68;58.22;101974.94;5030556;28;20037;-65
2022/07/17 07:51:18;;;;;;;3.13;0.68;;;;;;;22.64;58.24;101981.63;5032085;28;20119;-65
2022/07/17 07:53:44;;;;;;;0.50;0.50;;;;;;;22.60;58.73;101987.16;5032175;28;20041;-65
2022/07/17 07:56:09;;;;;;;2.05;0.68;;;;;;;22.58;58.15;101991.47;5031885;28;20033;-65
2022/07/17 07:58:35;;;;;;;2.72;0.63;;;;;;;22.56;59.08;101983.63;5012694;28;20505;-65
2022/07/17 08:01:00;;;;;;;2.10;0.57;;;;;;;22.53;58.10;101983.66;5031687;28;20033;-65
2022/07/17 08:03:26;;;;;;;1.27;0.60;;;;;;;22.41;58.59;101980.19;5029252;28;20068;-65
2022/07/17 08:05:51;;;;;;;2.80;0.70;;;;;;;22.37;58.79;101984.16;5031303;28;20037;-65
2022/07/17 08:08:17;;;;;;;2.15;0.43;;;;;;;22.34;59.52;101985.72;5031011;28;20494;-65
2022/07/17 08:10:42;;;;;;;3.03;0.73;;;;;;;22.63;60.10;101986.31;5031444;28;20112;-65
2022/07/17 08:13:08;;;;;;;0.98;0.60;;;;;;;22.90;58.78;101992.78;5030425;28;20497;-65
2022/07/17 08:15:33;;;;;;;2.08;0.40;;;;;;;23.05;57.71;101991.47;5031140;28;20033;-65
2022/07/17 08:17:59;;;;;;;1.08;0.45;;;;;;;23.33;57.21;101997.91;5030546;28;20041;-65
2022/07/17 08:20:25;;;;;;;1.90;0.47;;;;;;;23.37;55.99;102004.13;5031414;28;20112;-65
2022/07/17 08:22:52;;;;;;;2.95;0.40;;;;;;;23.35;55.10;102006.53;5031874;28;20116;-65
2022/07/17 08:25:18;;;;;;;2.45;0.60;;;;;;;23.21;55.19;102004.66;5028644;28;20033;-65
2022/07/17 08:27:43;;;;;;;4.93;0.50;;;;;;;23.06;55.86;102000.50;5030416;28;20145;-65
2022/07/17 08:30:11;;;;;;;1.10;0.50;;;;;;;23.08;56.93;102014.63;5031008;28;20401;-65
2022/07/17 08:32:37;;;;;;;4.25;0.50;;;;;;;23.10;56.37;102007.53;5031077;28;20041;-65
2022/07/17 08:35:04;;;;;;;2.83;0.70;;;;;;;23.26;57.50;102016.03;5030530;28;20455;-65
2022/07/17 08:37:29;;;;;;;1.27;0.65;;;;;;;23.39;56.15;102010.00;5030778;28;20124;-65
2022/07/17 08:39:55;;;;;;;0.70;0.40;;;;;;;23.38;56.67;102016.72;5030811;28;20124;-65
2022/07/17 08:42:21;;;;;;;0.73;0.40;;;;;;;23.33;56.18;102025.41;5031512;28;20033;-65
2022/07/17 08:44:47;;;;;;;2.00;0.40;;;;;;;23.30;54.61;102016.78;5030673;28;20668;-65
2022/07/17 08:47:15;;;;;;;2.88;0.47;;;;;;;23.42;55.12;102017.47;5013384;28;20037;-65
2022/07/17 08:49:46;;;;;;;2.65;0.50;;;;;;;23.66;54.85;102019.16;5030410;28;20040;-65
2022/07/17 08:52:13;;;;;;;1.95;0.32;;;;;;;23.89;54.50;102014.53;5030247;28;20033;-65
2022/07/17 08:54:38;;;;;;;0.57;0.40;;;;;;;23.98;54.09;102034.09;5030902;28;20037;-65
2022/07/17 08:57:04;;;;;;;2.60;0.40;;;;;;;24.01;53.92;102027.78;5028212;28;20029;-65
2022/07/17 08:59:30;;;;;;;1.48;0.45;;;;;;;24.28;54.20;102022.31;5029861;28;20037;-65
2022/07/17 09:01:57;;;;;;;3.05;0.50;;;;;;;24.35;52.70;102015.94;5031085;28;20045;-65
2022/07/17 09:04:24;;;;;;;0.63;0.47;;;;;;;24.34;52.64;102017.13;5028199;28;20390;-65
2022/07/17 09:07:04;;;;;;;0.40;0.40;;;;;;;24.38;52.68;102013.13;5030401;28;20033;-65
2022/07/17 09:09:31;;;;;;;3.97;0.60;;;;;;;24.36;52.76;102015.50;5029706;28;20426;-65
2022/07/17 09:11:58;;;;;;;2.67;0.47;;;;;;;24.34;51.71;102023.41;5030633;28;20091;-65
2022/07/17 09:14:35;;;;;;;2.67;0.43;;;;;;;24.17;51.27;102025.22;5030286;28;20378;-65
2022/07/17 09:17:00;;;;;;;0.80;0.60;;;;;;;24.23;51.88;102013.75;5030849;28;20029;-65
2022/07/17 09:19:39;;;;;;;1.33;0.65;;;;;;;24.46;52.53;102006.31;5029981;28;20526;-65
2022/07/17 09:22:06;;;;;;;2.08;0.60;;;;;;;24.80;52.08;102011.69;5030983;28;20076;-65
2022/07/17 09:24:58;;;;;;;1.63;0.60;;;;;;;25.03;51.22;102020.75;5030268;28;20442;-65
2022/07/17 09:27:23;;;;;;;1.27;0.50;;;;;;;25.07;49.25;102019.94;5026563;28;20046;-65
2022/07/17 09:30:00;;;;;;;2.25;0.57;;;;;;;24.94;48.54;102015.03;5030330;28;20504;-65
2022/07/17 09:32:28;;;;;;;0.30;0.30;;;;;;;24.88;49.80;102011.19;5030124;28;20115;-65
2022/07/17 09:34:56;;;;;;;4.20;0.55;;;;;;;25.01;50.26;102017.66;5030872;28;20099;-65
2022/07/17 09:37:27;;;;;;;2.70;0.45;;;;;;;25.39;49.11;102020.13;5030249;28;20045;-65
2022/07/17 09:39:53;;;;;;;0.60;0.40;;;;;;;25.51;48.63;102011.25;5030098;28;20029;-65
2022/07/17 09:42:32;;;;;;;2.78;0.60;;;;;;;25.65;48.97;102019.25;5030352;28;20116;-65
2022/07/17 09:45:04;;;;;;;0.57;0.40;;;;;;;25.68;48.88;102021.19;5034774;28;20545;-65
2022/07/17 09:47:32;;;;;;;0.90;0.55;;;;;;;25.46;49.61;102017.25;5033949;28;20379;-65
2022/07/17 09:49:59;;;;;;;1.88;0.60;;;;;;;25.51;50.00;102019.53;5033478;28;20029;-65
2022/07/17 09:52:30;;;;;;;1.10;0.55;;;;;;;25.68;49.67;102021.19;5034443;28;20033;-65
2022/07/17 09:54:57;;;;;;;2.33;0.47;;;;;;;25.97;49.28;102022.16;5034368;28;20370;-65
2022/07/17 09:57:28;;;;;;;0.82;0.75;;;;;;;26.18;49.03;102031.97;5033858;28;20017;-65
2022/07/17 09:59:55;;;;;;;;;;;;;;;26.09;48.03;102026.28;5033628;28;20521;-65
2022/07/17 10:02:21;;;;;;;4.63;0.40;;;;;;;26.00;48.06;102026.81;5033169;28;19916;-66
2022/07/17 10:04:48;;;;;;;2.03;0.50;;;;;;;25.90;48.15;102020.31;5033404;28;20041;-65
2022/07/17 10:07:13;;;;;;;0.40;0.40;;;;;;;26.02;49.06;102021.63;5033362;28;20033;-66
2022/07/17 10:09:39;;;;;;;1.75;0.60;;;;;;;26.17;48.40;102011.84;5033299;28;20087;-66
2022/07/17 10:12:07;;;;;;;2.42;0.80;;;;;;;26.48;48.00;102012.34;5034039;28;20120;-66
2022/07/17 10:14:34;;;;;;;1.55;0.45;;;;;;;26.78;47.55;102020.34;5033739;28;20061;-66
2022/07/17 10:17:13;;;;;;;1.20;0.38;;;;;;;27.11;46.53;102021.06;5033029;28;20041;-66
2022/07/17 10:19:48;;;;;;;2.05;0.88;;;;;;;27.31;45.85;102021.75;5033059;28;20034;-65
2022/07/17 10:22:14;;;;;;;0.50;0.30;;;;;;;27.44;45.52;102034.44;5033259;28;20080;-66
2022/07/17 10:24:54;;;;;;;1.20;0.30;;;;;;;27.55;45.53;102034.16;5034132;28;20041;-66
2022/07/17 10:27:25;;;;;;;2.45;0.50;;;;;;;27.70;45.22;102023.47;5032875;28;20033;-66
2022/07/17 10:30:09;;;;;;;2.38;0.30;;;;;;;27.88;43.58;102018.94;5033423;28;20038;-66
2022/07/17 10:32:36;;;;;;;2.33;0.50;;;;;;;27.89;43.20;102020.53;5033130;28;20099;-66
2022/07/17 10:35:06;;;;;;;5.82;0.90;;;;;;;27.96;42.20;102020.31;5033819;28;20037;-66
2022/07/17 10:37:37;;;;;;;0.45;0.45;;;;;;;28.11;42.69;102017.91;5032629;28;20116;-66
2022/07/17 10:40:19;;;;;;;1.25;0.60;;;;;;;28.29;42.31;102018.13;5032996;28;20120;-66
2022/07/17 10:42:53;;;;;;;1.25;0.60;;;;;;;27.98;42.26;102006.81;5032844;28;20037;-66
2022/07/17 10:45:39;;;;;;;4.28;0.40;;;;;;;28.11;43.55;102010.38;5033329;28;20037;-66
2022/07/17 10:48:15;;;;;;;2.30;0.28;;;;;;;28.32;43.10;102001.38;5032599;28;20439;-66
2022/07/17 10:50:55;;;;;;;0.65;0.40;;;;;;;28.56;42.48;101998.28;5032851;28;20036;-66
2022/07/17 10:53:26;;;;;;;3.15;0.30;;;;;;;28.77;41.78;102005.91;5033024;28;20045;-66
2022/07/17 10:56:04;;;;;;;;;;;;;;;28.77;41.70;102000.38;5033489;28;20050;-66
2022/07/17 10:58:33;;;;;;;1.55;0.40;;;;;;;28.95;41.75;102000.56;5031901;28;19947;-66
2022/07/17 11:01:12;;;;;;;0.55;0.40;;;;;;;29.11;41.17;102003.16;5032555;28;20025;-66
2022/07/17 11:03:48;;;;;;;0.93;0.38;;;;;;;29.24;41.25;102006.69;5032057;28;20037;-66
2022/07/17 11:06:15;;;;;;;0.82;0.50;;;;;;;29.16;40.85;101995.06;5032987;28;20095;-66
2022/07/17 11:08:41;;;;;;;0.75;0.40;;;;;;;29.18;40.74;101997.38;5031455;28;20029;-66
2022/07/17 11:11:07;;;;;;;3.40;0.50;;;;;;;29.33;40.79;101999.22;5032875;28;20128;-66
2022/07/17 11:13:32;;;;;;;0.82;0.40;;;;;;;29.32;40.14;101996.91;5032941;28;20037;-66
2022/07/17 11:15:58;;;;;;;1.27;0.40;;;;;;;29.47;40.28;102003.47;5032558;28;20033;-66
2022/07/17 11:18:24;;;;;;;0.40;0.40;;;;;;;29.67;39.54;102000.38;5031079;28;20041;-66
2022/07/17 11:21:07;;;;;;;0.55;0.22;;;;;;;29.74;39.84;102002.91;5015111;28;20046;-66
2022/07/17 11:23:33;;;;;;;2.17;0.40;;;;;;;29.86;39.62;101991.72;5032546;28;20060;-66
2022/07/17 11:26:05;;;;;;;0.40;0.32;;;;;;;29.94;39.98;101992.22;5032774;28;20033;-66